Terminal Aerodrome Forecast
Issued by NWS

Home | Current Version | Previous Version | Text Only | Print | Product List | Glossary On
Versions: 1 2 3 4 5 6 7 8 9 10 11 12 13 14 15 16 17 18 19 20 21 22 23 24 25 26 27 28 29 30 31 32 33 34 35 36 37
000
FTUS41 KBOX 281007 AAA
TAFACK
TAF AMD
KACK 281007Z 2810/2906 19004KT 1 1/2SM BR OVC002
      TEMPO 2810/2814 1/2SM FG VV002
     FM281400 23005KT P6SM SCT080
     FM281800 21010KT P6SM SCT060
     FM290500 25007KT 6SM BR SCT200=

USA.gov is the U.S. government's official web portal to all federal, state and local government web resources and services.